Time;durP1;ratioP1;P1;durP2;ratioP2;P2;SDS_P1;SDS_P2;PMS_P1;PMS_P2;Temp;Humidity;BMP_temperature;BMP_pressure;BME280_temperature;BME280_humidity;BME280_pressure;Samples;Min_cycle;Max_cycle;Signal;HPM_P1;HPM_P2
2023/11/27 00:00:38;;;;;;;;;;;3.20;68.90;;;-1.99;100.00;95203.34;4940024;28;20004;-56
2023/11/27 00:03:04;;;;;;;;;;;3.20;68.80;;;-1.97;100.00;95197.94;4941084;28;19910;-53
2023/11/27 00:05:30;;;;;;;;;;;3.20;68.80;;;-1.92;100.00;95198.13;4940796;28;19949;-51
2023/11/27 00:07:55;;;;;;;;;;;3.20;68.80;;;-1.91;100.00;95194.56;4939800;28;19942;-54
2023/11/27 00:10:21;;;;;;;;;;;3.30;68.90;;;-1.89;100.00;95192.53;4964442;28;19980;-54
2023/11/27 00:12:48;;;;;;;;;;;3.30;68.80;;;-1.83;100.00;95194.34;4939690;28;19918;-54
2023/11/27 00:15:15;;;;;;;;;;;3.40;68.90;;;-1.79;100.00;95184.31;4943141;28;19917;-55
2023/11/27 00:17:41;;;;;;;;;;;3.30;68.80;;;-1.73;100.00;95186.13;4953751;28;19910;-55
2023/11/27 00:20:09;;;;;;;;;;;3.40;68.90;;;-1.69;100.00;95177.72;4949618;28;20305;-53
2023/11/27 00:22:36;;;;;;;;;;;3.50;69.00;;;-1.62;100.00;95188.19;4949470;28;19953;-54
2023/11/27 00:25:03;;;;;;;;;;;3.50;69.00;;;-1.59;100.00;95193.00;4941885;28;20333;-54
2023/11/27 00:27:29;;;;;;;;;;;3.60;69.10;;;-1.51;100.00;95194.63;4950600;28;19918;-55
2023/11/27 00:29:55;;;;;;;;;;;3.60;68.90;;;-1.48;100.00;95189.81;4946894;28;19922;-56
2023/11/27 00:32:20;;;;;;;;;;;3.70;69.00;;;-1.45;100.00;95184.19;4942091;28;20391;-51
2023/11/27 00:34:46;;;;;;;;;;;3.70;69.00;;;-1.40;100.00;95188.81;4945515;28;19961;-53
2023/11/27 00:37:12;;;;;;;;;;;3.80;69.00;;;-1.36;100.00;95186.63;4944540;28;19936;-50
2023/11/27 00:39:38;;;;;;;;;;;3.80;69.00;;;-1.33;100.00;95181.00;4950655;28;20359;-53
2023/11/27 00:42:04;;;;;;;;;;;3.80;69.00;;;-1.28;100.00;95186.44;4941107;28;19957;-56
2023/11/27 00:44:30;;;;;;;;;;;3.90;69.00;;;-1.27;100.00;95183.59;4947125;28;20009;-56
2023/11/27 00:46:56;;;;;;;;;;;4.00;69.00;;;-1.25;100.00;95175.56;4941855;28;20021;-53
2023/11/27 00:49:21;;;;;;;;;;;4.00;68.90;;;-1.24;100.00;95170.13;4946264;28;19910;-54
2023/11/27 00:51:47;;;;;;;;;;;4.00;68.80;;;-1.23;100.00;95165.72;4942595;28;20352;-52
2023/11/27 00:54:13;;;;;;;;;;;4.00;68.70;;;-1.21;100.00;95161.09;4948434;28;20005;-56
2023/11/27 00:56:40;;;;;;;;;;;4.00;68.70;;;-1.21;100.00;95161.91;4944581;28;19929;-56
2023/11/27 00:59:07;;;;;;;;;;;4.00;68.60;;;-1.19;100.00;95152.06;4942451;28;19957;-56
2023/11/27 01:01:33;;;;;;;;;;;4.10;68.70;;;-1.21;100.00;95154.06;4945413;28;19918;-54
2023/11/27 01:03:59;;;;;;;;;;;4.10;68.70;;;-1.20;100.00;95149.63;4942774;28;19914;-54
2023/11/27 01:06:25;;;;;;;;;;;4.10;69.00;;;-1.21;100.00;95145.41;4958736;28;19964;-54
2023/11/27 01:08:51;;;;;;;;;;;4.10;68.70;;;-1.17;100.00;95150.03;4940477;28;20001;-54
2023/11/27 01:11:17;;;;;;;;;;;4.10;68.70;;;-1.16;100.00;95145.59;4945279;28;19922;-54
2023/11/27 01:13:43;;;;;;;;;;;4.10;68.70;;;-1.13;100.00;95147.00;4946945;28;20012;-54
2023/11/27 01:16:09;;;;;;;;;;;4.10;68.70;;;-1.11;100.00;95145.00;4946742;28;20333;-53
2023/11/27 01:18:34;;;;;;;;;;;4.20;68.70;;;-1.11;100.00;95140.56;4950774;28;19956;-55
2023/11/27 01:21:00;;;;;;;;;;;4.20;68.70;;;-1.11;100.00;95131.94;4946439;28;20001;-55
2023/11/27 01:23:27;;;;;;;;;;;4.20;68.70;;;-1.07;100.00;95133.13;4945790;28;20025;-51
2023/11/27 01:25:53;;;;;;;;;;;4.30;69.20;;;-1.04;100.00;95137.94;4954164;28;19914;-51
2023/11/27 01:28:19;;;;;;;;;;;4.30;68.70;;;-1.03;100.00;95140.38;4949809;28;19918;-47
2023/11/27 01:30:45;;;;;;;;;;;4.30;68.70;;;-1.01;100.00;95135.72;4946582;28;19922;-51
2023/11/27 01:33:12;;;;;;;;;;;4.30;68.70;;;-0.99;100.00;95130.31;4965555;28;19917;-52
2023/11/27 01:35:38;;;;;;;;;;;4.30;68.70;;;-0.98;100.00;95126.69;4944380;28;19918;-50
2023/11/27 01:38:04;;;;;;;;;;;4.30;68.60;;;-0.97;100.00;95130.91;4942393;28;19957;-50
2023/11/27 01:40:30;;;;;;;;;;;4.40;68.70;;;-0.96;100.00;95122.06;4946999;28;20393;-53
2023/11/27 01:42:56;;;;;;;;;;;4.30;68.60;;;-1.00;100.00;95111.22;4944047;28;20400;-56
2023/11/27 01:45:21;;;;;;;;;;;4.30;68.60;;;-0.98;100.00;95113.59;4945571;28;19949;-53
2023/11/27 01:47:48;;;;;;;;;;;4.40;68.60;;;-0.95;100.00;95110.59;4942552;28;19913;-53
2023/11/27 01:50:14;;;;;;;;;;;4.30;68.60;;;-0.95;100.00;95110.59;4962327;28;20357;-52
2023/11/27 01:52:40;;;;;;;;;;;4.30;68.60;;;-0.97;100.00;95105.56;4944682;28;19993;-52
2023/11/27 01:55:08;;;;;;;;;;;4.30;68.60;;;-1.00;100.00;95111.22;4941553;28;19918;-55
2023/11/27 01:57:36;;;;;;;;;;;4.30;68.60;;;-1.01;100.00;95100.94;4959020;28;19918;-51
2023/11/27 02:00:05;;;;;;;;;;;4.30;68.60;;;-0.99;100.00;95101.56;4955924;28;20483;-50
2023/11/27 02:02:31;;;;;;;;;;;4.30;68.60;;;-0.99;100.00;95099.72;4943772;28;19921;-55
2023/11/27 02:04:57;;;;;;;;;;;4.30;68.60;;;-1.04;100.00;95088.28;4944733;28;20719;-56
2023/11/27 02:07:23;;;;;;;;;;;4.30;68.60;;;-1.02;100.00;95086.28;4951019;28;19910;-54
2023/11/27 02:09:49;;;;;;;;;;;4.20;68.50;;;-1.08;100.00;95079.25;4952160;28;19915;-53
2023/11/27 02:12:15;;;;;;;;;;;4.20;68.40;;;-1.22;100.00;95076.66;4941096;28;19918;-56
2023/11/27 02:14:41;;;;;;;;;;;4.20;68.40;;;-1.20;100.00;95063.38;4951859;28;20377;-55
2023/11/27 02:17:08;;;;;;;;;;;4.20;68.50;;;-1.19;100.00;95063.19;4967737;28;19910;-51
2023/11/27 02:19:34;;;;;;;;;;;4.10;68.30;;;-1.21;100.00;95059.97;4944045;28;20357;-51
2023/11/27 02:21:59;;;;;;;;;;;4.10;68.40;;;-1.24;100.00;95054.34;4948413;28;19942;-52
2023/11/27 02:24:25;;;;;;;;;;;4.10;68.40;;;-1.23;100.00;95050.72;4940823;28;19934;-49
2023/11/27 02:26:51;;;;;;;;;;;4.00;68.40;;;-1.28;100.00;95048.72;4943409;28;19910;-52
2023/11/27 02:29:17;;;;;;;;;;;4.00;68.40;;;-1.34;100.00;95049.53;4954606;28;19910;-47
2023/11/27 02:31:43;;;;;;;;;;;4.00;68.40;;;-1.33;100.00;95042.50;4957548;28;20456;-47
2023/11/27 02:34:08;;;;;;;;;;;3.90;69.10;;;-1.33;100.00;95045.09;4950775;28;19917;-47
2023/11/27 02:36:40;;;;;;;;;;;3.90;68.50;;;-1.40;100.00;95032.84;4942252;28;20286;-47
2023/11/27 02:39:06;;;;;;;;;;;3.90;68.50;;;-1.44;100.00;95025.63;4950046;28;20324;-48
2023/11/27 02:41:38;;;;;;;;;;;3.80;68.50;;;-1.45;100.00;95030.03;4947277;28;19933;-47
2023/11/27 02:44:05;;;;;;;;;;;3.80;68.50;;;-1.46;100.00;95019.81;4946802;28;20045;-47
2023/11/27 02:46:31;;;;;;;;;;;3.80;68.60;;;-1.60;100.00;95007.75;4947800;28;19910;-48
2023/11/27 02:48:57;;;;;;;;;;;3.80;68.60;;;-1.55;100.00;95005.34;4949007;28;20402;-47
2023/11/27 02:51:23;;;;;;;;;;;3.70;68.60;;;-1.56;100.00;95015.00;4945740;28;19914;-49
2023/11/27 02:53:48;;;;;;;;;;;3.70;68.60;;;-1.54;100.00;95007.75;4940449;28;20369;-49
2023/11/27 02:56:14;;;;;;;;;;;3.70;68.70;;;-1.51;100.00;95014.38;4941879;28;19910;-48
2023/11/27 02:58:41;;;;;;;;;;;3.70;68.70;;;-1.51;100.00;95011.75;4942853;28;19918;-47
2023/11/27 03:01:07;;;;;;;;;;;3.70;68.80;;;-1.51;100.00;95012.56;4950220;28;20404;-47
2023/11/27 03:03:35;;;;;;;;;;;3.70;68.90;;;-1.48;100.00;95009.53;4943539;28;20296;-47
2023/11/27 03:06:01;;;;;;;;;;;3.70;69.00;;;-1.47;100.00;95015.59;4942738;28;19917;-47
2023/11/27 03:08:27;;;;;;;;;;;3.70;69.00;;;-1.47;100.00;95007.75;4937918;28;19961;-48
2023/11/27 03:10:53;;;;;;;;;;;3.70;68.90;;;-1.46;100.00;95010.16;4946302;28;19918;-47
2023/11/27 03:13:18;;;;;;;;;;;3.80;68.90;;;-1.47;100.00;94997.31;4951343;28;19917;-48
2023/11/27 03:15:44;;;;;;;;;;;3.80;68.90;;;-1.47;100.00;94989.47;4938895;28;19911;-47
2023/11/27 03:18:10;;;;;;;;;;;3.80;68.80;;;-1.50;100.00;94992.47;4947004;28;20488;-47
2023/11/27 03:20:36;;;;;;;;;;;3.80;68.70;;;-1.50;100.00;94982.03;4935217;28;19934;-48
2023/11/27 03:23:01;;;;;;;;;;;3.80;68.60;;;-1.50;100.00;94988.06;4944066;28;19953;-47
2023/11/27 03:25:27;;;;;;;;;;;3.80;68.60;;;-1.50;100.00;94985.44;4950763;28;20384;-48
2023/11/27 03:27:53;;;;;;;;;;;3.80;68.50;;;-1.53;100.00;94978.00;4943566;28;19950;-47
2023/11/27 03:30:19;;;;;;;;;;;3.80;68.60;;;-1.57;100.00;94971.56;4943043;28;20477;-47
2023/11/27 03:32:45;;;;;;;;;;;3.80;68.50;;;-1.56;100.00;94969.78;4937908;28;19914;-52
2023/11/27 03:35:11;;;;;;;;;;;3.80;68.50;;;-1.59;100.00;94967.59;4945390;28;19916;-48
2023/11/27 03:37:37;;;;;;;;;;;3.70;68.40;;;-1.60;100.00;94960.72;4940683;28;19914;-48
2023/11/27 03:40:03;;;;;;;;;;;3.70;69.20;;;-1.63;100.00;94961.94;4944542;28;19918;-48
2023/11/27 03:42:30;;;;;;;;;;;3.70;68.40;;;-1.65;100.00;94962.16;4938877;28;20012;-48
2023/11/27 03:44:56;;;;;;;;;;;3.70;68.40;;;-1.64;100.00;94962.94;4941621;28;19910;-49
2023/11/27 03:47:21;;;;;;;;;;;3.70;68.40;;;-1.66;100.00;94963.16;4943255;28;19957;-52
2023/11/27 03:49:47;;;;;;;;;;;3.70;68.60;;;-1.66;100.00;94967.56;4945385;28;20012;-47
2023/11/27 03:52:13;;;;;;;;;;;3.70;68.60;;;-1.66;100.00;94963.16;4951213;28;19914;-51
2023/11/27 03:54:41;;;;;;;;;;;3.70;68.60;;;-1.63;100.00;94961.94;4948861;28;19918;-49
2023/11/27 03:57:06;;;;;;;;;;;3.70;68.50;;;-1.63;100.00;94957.53;4949010;28;20013;-47
2023/11/27 03:59:32;;;;;;;;;;;3.70;68.50;;;-1.64;100.00;94955.13;4943078;28;19996;-53
2023/11/27 04:02:00;;;;;;;;;;;3.70;68.50;;;-1.65;100.00;94943.88;4944531;28;27833;-49
2023/11/27 04:04:26;;;;;;;;;;;3.70;68.50;;;-1.62;100.00;94942.66;4945357;28;19921;-48
2023/11/27 04:06:54;;;;;;;;;;;3.70;68.50;;;-1.61;100.00;94944.25;4946840;28;19910;-52
2023/11/27 04:09:20;;;;;;;;;;;3.70;68.50;;;-1.60;100.00;94937.22;4949732;28;19910;-52
2023/11/27 04:11:48;;;;;;;;;;;3.70;68.50;;;-1.60;100.00;94935.41;4940988;28;20049;-52
2023/11/27 04:14:15;;;;;;;;;;;3.70;68.50;;;-1.58;100.00;94935.22;4952520;28;19916;-49
2023/11/27 04:16:41;;;;;;;;;;;3.70;68.50;;;-1.60;100.00;94929.38;4963827;28;20258;-49
2023/11/27 04:19:07;;;;;;;;;;;3.70;68.50;;;-1.59;100.00;94929.19;4965466;28;20467;-48
2023/11/27 04:21:33;;;;;;;;;;;3.70;68.50;;;-1.59;100.00;94920.56;4948213;28;20004;-49
2023/11/27 04:24:00;;;;;;;;;;;3.80;68.50;;;-1.61;100.00;94917.34;4949783;28;20081;-48
2023/11/27 04:26:26;;;;;;;;;;;3.70;68.40;;;-1.61;100.00;94914.72;4948545;28;19910;-53
2023/11/27 04:28:52;;;;;;;;;;;3.70;68.40;;;-1.62;100.00;94921.78;4940565;28;19927;-50
2023/11/27 04:31:18;;;;;;;;;;;3.70;68.40;;;-1.60;100.00;94909.28;4946104;28;19922;-52
2023/11/27 04:33:44;;;;;;;;;;;3.70;68.30;;;-1.60;100.00;94911.91;4950484;28;19950;-50
2023/11/27 04:36:10;;;;;;;;;;;3.70;68.30;;;-1.60;100.00;94913.72;4944466;28;19970;-48
2023/11/27 04:38:36;;;;;;;;;;;3.70;68.30;;;-1.62;100.00;94906.09;4942437;28;19910;-54
2023/11/27 04:41:02;;;;;;;;;;;3.70;68.30;;;-1.62;100.00;94903.50;4947056;28;19914;-49
2023/11/27 04:43:28;;;;;;;;;;;3.70;68.30;;;-1.63;100.00;94896.66;4948399;28;19929;-47
2023/11/27 04:45:55;;;;;;;;;;;3.70;68.30;;;-1.64;100.00;94900.28;4944687;28;20305;-50
2023/11/27 04:48:21;;;;;;;;;;;3.70;68.20;;;-1.65;100.00;94898.69;4947920;28;19933;-52
2023/11/27 04:50:48;;;;;;;;;;;3.70;68.20;;;-1.66;100.00;94899.66;4948340;28;19969;-50
2023/11/27 04:53:14;;;;;;;;;;;3.70;68.20;;;-1.68;100.00;94892.03;4945228;28;19917;-48
2023/11/27 04:55:40;;;;;;;;;;;3.70;69.00;;;-1.67;100.00;94891.03;4939378;28;19910;-50
2023/11/27 04:58:07;;;;;;;;;;;3.60;68.20;;;-1.68;100.00;94894.66;4941595;28;20361;-50
2023/11/27 05:00:33;;;;;;;;;;;3.70;68.30;;;-1.68;100.00;94893.88;4941498;28;19914;-49
2023/11/27 05:03:00;;;;;;;;;;;3.60;68.20;;;-1.68;100.00;94896.47;4953478;28;19936;-48
2023/11/27 05:05:26;;;;;;;;;;;3.60;68.30;;;-1.65;100.00;94898.69;4943341;28;19945;-48
2023/11/27 05:07:52;;;;;;;;;;;3.60;68.20;;;-1.66;100.00;94900.50;4945770;28;19968;-48
2023/11/27 05:10:18;;;;;;;;;;;3.60;68.30;;;-1.70;100.00;94896.66;4945037;28;19914;-48
2023/11/27 05:12:45;;;;;;;;;;;3.60;68.30;;;-1.66;100.00;94897.88;4967250;28;19921;-50
2023/11/27 05:15:11;;;;;;;;;;;3.60;68.30;;;-1.65;100.00;94896.06;4943980;28;19917;-52
2023/11/27 05:17:37;;;;;;;;;;;3.60;68.30;;;-1.67;100.00;94895.47;4945618;28;19914;-50
2023/11/27 05:20:03;;;;;;;;;;;3.60;68.30;;;-1.66;100.00;94897.88;4946072;28;20440;-51
2023/11/27 05:22:29;;;;;;;;;;;3.60;68.30;;;-1.70;100.00;94893.25;4944647;28;19945;-48
2023/11/27 05:24:55;;;;;;;;;;;3.60;68.30;;;-1.68;100.00;94893.88;4946960;28;20354;-50
2023/11/27 05:27:23;;;;;;;;;;;3.60;68.30;;;-1.67;100.00;94898.06;4941392;28;19950;-47
2023/11/27 05:29:49;;;;;;;;;;;3.60;68.30;;;-1.67;100.00;94901.47;4950764;28;19976;-51
2023/11/27 05:32:16;;;;;;;;;;;3.60;68.30;;;-1.71;100.00;94897.69;4943831;28;20005;-48
2023/11/27 05:34:42;;;;;;;;;;;3.60;68.30;;;-1.70;100.00;94894.06;4947036;28;19957;-50
2023/11/27 05:37:09;;;;;;;;;;;3.60;68.30;;;-1.70;100.00;94896.66;4943154;28;19921;-50
2023/11/27 05:39:40;;;;;;;;;;;3.60;68.20;;;-1.72;100.00;94887.44;4945524;28;20373;-50
2023/11/27 05:42:11;;;;;;;;;;;3.60;68.20;;;-1.75;100.00;94883.44;4948157;28;19933;-49
2023/11/27 05:44:38;;;;;;;;;;;3.60;68.30;;;-1.72;100.00;94883.03;4968179;28;19914;-49
2023/11/27 05:47:04;;;;;;;;;;;3.60;68.30;;;-1.71;100.00;94883.81;4947881;28;19914;-49
2023/11/27 05:49:31;;;;;;;;;;;3.60;68.30;;;-1.69;100.00;94881.81;4952427;28;19917;-48
2023/11/27 05:51:57;;;;;;;;;;;3.60;68.30;;;-1.72;100.00;94879.63;4944024;28;19910;-50
2023/11/27 05:54:24;;;;;;;;;;;3.60;68.30;;;-1.66;100.00;94881.38;4945883;28;20412;-49
2023/11/27 05:56:50;;;;;;;;;;;3.60;68.30;;;-1.67;100.00;94877.19;4941370;28;19960;-48
2023/11/27 05:59:17;;;;;;;;;;;3.60;68.30;;;-1.61;100.00;94881.56;4945509;28;19921;-48
2023/11/27 06:01:43;;;;;;;;;;;3.60;68.40;;;-1.61;100.00;94883.41;4962987;28;20021;-52
2023/11/27 06:04:09;;;;;;;;;;;3.60;68.30;;;-1.57;100.00;94879.34;4944049;28;19933;-47
2023/11/27 06:06:35;;;;;;;;;;;3.60;68.30;;;-1.56;100.00;94879.16;4944371;28;20284;-48
2023/11/27 06:09:00;;;;;;;;;;;3.70;68.30;;;-1.54;100.00;94874.50;4943125;28;19910;-47
2023/11/27 06:11:26;;;;;;;;;;;3.70;68.30;;;-1.54;100.00;94879.75;4942647;28;20296;-48
2023/11/27 06:13:52;;;;;;;;;;;3.70;68.30;;;-1.54;100.00;94871.09;4941635;28;19917;-49
2023/11/27 06:16:18;;;;;;;;;;;3.70;68.30;;;-1.57;100.00;94867.09;4947327;28;20013;-47
2023/11/27 06:18:44;;;;;;;;;;;3.70;68.30;;;-1.60;100.00;94861.47;4946601;28;19910;-49
2023/11/27 06:21:14;;;;;;;;;;;3.70;68.20;;;-1.59;100.00;94868.31;4952045;28;20289;-47
2023/11/27 06:23:40;;;;;;;;;;;3.70;68.20;;;-1.57;100.00;94861.06;4940875;28;19981;-49
2023/11/27 06:26:06;;;;;;;;;;;3.70;68.20;;;-1.59;100.00;94863.09;4951442;28;19914;-48
2023/11/27 06:28:32;;;;;;;;;;;3.70;68.10;;;-1.59;100.00;94858.69;4942330;28;20049;-48
2023/11/27 06:30:58;;;;;;;;;;;3.80;68.20;;;-1.56;100.00;94855.66;4946814;28;20364;-48
2023/11/27 06:33:24;;;;;;;;;;;3.70;68.20;;;-1.55;100.00;94851.22;4948951;28;19910;-51
2023/11/27 06:35:51;;;;;;;;;;;3.70;68.20;;;-1.56;100.00;94847.81;4941436;28;19942;-48
2023/11/27 06:38:18;;;;;;;;;;;3.70;68.20;;;-1.55;100.00;94849.41;4943921;28;20289;-49
2023/11/27 06:40:46;;;;;;;;;;;3.80;68.30;;;-1.55;100.00;94841.56;4944734;28;20401;-49
2023/11/27 06:43:12;;;;;;;;;;;3.80;68.20;;;-1.53;100.00;94852.63;4948528;28;19910;-49
2023/11/27 06:45:38;;;;;;;;;;;3.80;68.30;;;-1.52;100.00;94851.63;4960745;28;19914;-48
2023/11/27 06:48:04;;;;;;;;;;;3.80;68.30;;;-1.52;100.00;94853.44;4945376;28;19917;-48
2023/11/27 06:50:29;;;;;;;;;;;3.80;68.20;;;-1.47;100.00;94851.81;4953016;28;19949;-52
2023/11/27 06:52:56;;;;;;;;;;;3.80;68.20;;;-1.43;100.00;94839.91;4949935;28;20365;-48
2023/11/27 06:55:22;;;;;;;;;;;3.80;68.30;;;-1.41;100.00;94839.69;4967367;28;19910;-49
2023/11/27 06:57:49;;;;;;;;;;;3.90;68.30;;;-1.38;100.00;94835.88;4944917;28;20419;-49
2023/11/27 07:00:16;;;;;;;;;;;3.90;68.30;;;-1.34;100.00;94826.63;4950910;28;20289;-51
2023/11/27 07:02:42;;;;;;;;;;;3.90;68.30;;;-1.32;100.00;94824.59;4944838;28;20069;-50
2023/11/27 07:05:09;;;;;;;;;;;4.00;68.30;;;-1.28;100.00;94833.63;4951342;28;19910;-52
2023/11/27 07:07:35;;;;;;;;;;;4.00;68.30;;;-1.26;100.00;94831.59;4948143;28;19968;-50
2023/11/27 07:10:02;;;;;;;;;;;4.00;68.20;;;-1.23;100.00;94839.81;4950969;28;20516;-50
2023/11/27 07:12:29;;;;;;;;;;;4.10;68.20;;;-1.19;100.00;94833.19;4943207;28;19968;-48
2023/11/27 07:14:55;;;;;;;;;;;4.10;68.20;;;-1.20;100.00;94828.94;4945893;28;19918;-49
2023/11/27 07:17:21;;;;;;;;;;;4.20;68.20;;;-1.09;100.00;94829.31;4951570;28;19918;-50
2023/11/27 07:19:47;;;;;;;;;;;4.20;68.20;;;-1.05;100.00;94827.88;4944958;28;19960;-50
2023/11/27 07:22:12;;;;;;;;;;;4.20;68.10;;;-1.03;100.00;94826.66;4945242;28;19918;-51
2023/11/27 07:24:38;;;;;;;;;;;4.30;68.10;;;-0.99;100.00;94816.56;4942118;28;19918;-49
2023/11/27 07:27:05;;;;;;;;;;;4.30;68.00;;;-1.01;100.00;94824.63;4947729;28;19932;-49
2023/11/27 07:29:31;;;;;;;;;;;4.40;68.00;;;-0.95;100.00;94828.19;4951413;28;19917;-49
2023/11/27 07:31:57;;;;;;;;;;;4.40;68.00;;;-0.91;100.00;94825.97;4923472;28;66922;-48
2023/11/27 07:34:26;;;;;;;;;;;4.40;68.00;;;-0.87;100.00;94821.94;4956464;28;19910;-51
2023/11/27 07:36:52;;;;;;;;;;;4.50;68.00;;;-0.82;100.00;94822.88;4956314;28;19918;-51
2023/11/27 07:39:18;;;;;;;;;;;4.50;67.90;;;-0.75;100.00;94812.41;4958317;28;20462;-54
2023/11/27 07:41:47;;;;;;;;;;;4.60;67.90;;;-0.71;100.00;94810.94;4955180;28;19913;-50
2023/11/27 07:44:15;;;;;;;;;;;4.70;68.00;;;-0.65;100.00;94812.72;4957711;28;19914;-50
2023/11/27 07:46:41;;;;;;;;;;;4.70;67.80;;;-0.58;100.00;94808.22;4957728;28;19910;-48
2023/11/27 07:49:08;;;;;;;;;;;4.80;67.80;;;-0.51;100.00;94800.31;4954277;28;19914;-48
2023/11/27 07:51:34;;;;;;;;;;;4.80;67.80;;;-0.47;100.00;94789.22;4954478;28;19966;-49
2023/11/27 07:54:01;;;;;;;;;;;4.90;67.80;;;-0.41;100.00;94797.22;4966378;28;19914;-50
2023/11/27 07:56:28;;;;;;;;;;;4.90;67.70;;;-0.34;100.00;94774.41;4955765;28;19914;-52
2023/11/27 07:58:57;;;;;;;;;;;5.00;67.70;;;-0.30;99.26;94758.06;4951691;28;20036;-53
2023/11/27 08:01:24;;;;;;;;;;;5.10;67.60;;;-0.22;98.53;94769.25;4957371;28;19914;-53
2023/11/27 08:03:51;;;;;;;;;;;5.10;67.60;;;-0.12;98.52;94788.69;4969090;28;19949;-51
2023/11/27 08:06:17;;;;;;;;;;;5.20;67.60;;;-0.04;98.87;94801.47;4954195;28;19941;-48
2023/11/27 08:08:43;;;;;;;;;;;5.30;67.50;;;0.01;99.01;94797.44;4956561;28;19969;-48
2023/11/27 08:11:12;;;;;;;;;;;5.30;67.40;;;0.06;99.02;94795.72;4958634;28;20816;-51
2023/11/27 08:13:43;;;;;;;;;;;5.40;67.40;;;0.09;98.49;94789.25;4955291;28;19914;-50
2023/11/27 08:16:09;;;;;;;;;;;5.40;67.30;;;0.13;97.71;94786.00;4958494;28;19945;-53
2023/11/27 08:18:38;;;;;;;;;;;5.50;67.20;;;0.14;96.90;94766.66;4956312;28;19910;-49
2023/11/27 08:21:06;;;;;;;;;;;5.50;67.10;;;0.20;99.50;94736.16;4975136;28;19914;-48
2023/11/27 08:23:34;;;;;;;;;;;5.50;67.00;;;0.13;95.79;94733.63;4958262;28;20343;-48
2023/11/27 08:26:03;;;;;;;;;;;5.60;67.00;;;0.28;96.48;94746.31;4953484;28;20300;-51
2023/11/27 08:28:30;;;;;;;;;;;5.70;67.00;;;0.33;95.70;94756.94;4957928;28;19968;-47
2023/11/27 08:30:56;;;;;;;;;;;5.70;66.90;;;0.35;95.19;94759.38;4957971;28;19925;-51
2023/11/27 08:33:22;;;;;;;;;;;5.80;66.70;;;0.44;96.13;94750.19;4956876;28;19910;-51
2023/11/27 08:35:48;;;;;;;;;;;5.90;66.60;;;0.39;94.57;94750.81;4956474;28;19910;-50
2023/11/27 08:38:14;;;;;;;;;;;5.90;66.60;;;0.47;94.06;94754.97;4957946;28;19916;-54
2023/11/27 08:40:41;;;;;;;;;;;6.00;66.40;;;0.53;93.69;94745.41;4977916;23;19926;-48
2023/11/27 08:43:07;;;;;;;;;;;6.10;66.40;;;0.55;93.60;94735.50;4973976;28;19934;-48
2023/11/27 08:45:34;;;;;;;;;;;6.20;66.30;;;0.60;93.88;94749.56;4975259;28;19932;-50
2023/11/27 08:48:00;;;;;;;;;;;6.30;66.20;;;0.72;94.09;94744.34;4978968;28;19909;-49
2023/11/27 08:50:32;;;;;;;;;;;6.30;66.00;;;0.79;92.77;94731.16;4978903;28;19917;-48
2023/11/27 08:53:04;;;;;;;;;;;6.40;66.00;;;0.88;92.93;94730.59;4990426;28;19913;-55
2023/11/27 08:55:30;;;;;;;;;;;6.50;65.80;;;0.97;92.62;94730.25;4993512;28;19910;-55
2023/11/27 08:57:59;;;;;;;;;;;6.60;65.80;;;1.06;92.10;94734.16;4992055;28;19917;-58
2023/11/27 09:00:28;;;;;;;;;;;6.70;65.70;;;1.15;92.90;94732.81;4990126;28;19916;-56
2023/11/27 09:02:59;;;;;;;;;;;6.80;65.60;;;1.18;92.13;94721.88;4989843;28;20335;-58
2023/11/27 09:05:26;;;;;;;;;;;6.90;65.60;;;1.24;92.26;94722.78;4991694;28;19925;-53
2023/11/27 09:07:53;;;;;;;;;;;7.00;65.50;;;1.27;93.19;94720.50;4991873;28;19909;-57
2023/11/27 09:10:21;;;;;;;;;;;7.10;65.50;;;1.31;92.52;94715.59;4990278;28;19913;-56
2023/11/27 09:12:50;;;;;;;;;;;7.20;65.40;;;1.33;92.06;94714.34;4993303;28;19916;-56
2023/11/27 09:15:18;;;;;;;;;;;7.30;65.20;;;1.45;92.33;94710.94;4991864;28;20545;-56
2023/11/27 09:17:46;;;;;;;;;;;7.40;65.00;;;1.55;92.63;94704.06;4993238;28;20026;-57
2023/11/27 09:20:15;;;;;;;;;;;7.50;65.00;;;1.66;93.10;94697.25;4993126;28;19943;-54
2023/11/27 09:22:42;;;;;;;;;;;7.50;64.80;;;1.79;92.90;94706.69;4991319;28;19913;-56
2023/11/27 09:25:09;;;;;;;;;;;7.60;64.90;;;1.84;92.19;94699.69;4993394;28;20364;-58
2023/11/27 09:27:42;;;;;;;;;;;7.70;64.80;;;1.92;91.96;94698.56;4991793;28;20256;-57
2023/11/27 09:30:09;;;;;;;;;;;7.80;64.60;;;2.01;91.63;94694.53;4992925;28;19920;-57
2023/11/27 09:32:39;;;;;;;;;;;7.80;64.50;;;2.04;91.25;94695.91;4991616;28;19917;-56
2023/11/27 09:35:13;;;;;;;;;;;7.90;64.50;;;2.08;91.58;94682.06;4992701;28;19951;-57
2023/11/27 09:37:39;;;;;;;;;;;8.00;64.30;;;2.13;91.53;94680.56;4993132;28;20394;-59
2023/11/27 09:40:10;;;;;;;;;;;8.00;64.20;;;2.26;91.69;94685.56;4991556;28;19916;-56
2023/11/27 09:42:36;;;;;;;;;;;8.10;64.20;;;2.33;90.66;94670.44;4989912;28;19943;-55
2023/11/27 09:45:04;;;;;;;;;;;8.20;64.10;;;2.41;91.45;94674.50;4991394;28;19921;-57
2023/11/27 09:47:34;;;;;;;;;;;8.30;64.00;;;2.45;89.61;94671.19;4992529;28;19910;-51
2023/11/27 09:50:02;;;;;;;;;;;8.40;63.90;;;2.51;89.69;94664.19;4992121;28;20360;-51
2023/11/27 09:52:53;;;;;;;;;;;8.50;63.80;;;2.54;88.46;94661.91;4990393;28;19939;-53
2023/11/27 09:55:20;;;;;;;;;;;8.70;63.50;;;2.60;88.55;94659.34;4988140;28;19909;-54
2023/11/27 09:57:49;;;;;;;;;;;8.70;63.20;;;2.63;87.80;94649.13;4990443;28;19913;-51
2023/11/27 10:00:20;;;;;;;;;;;8.80;63.00;;;2.61;86.29;94642.53;4993899;28;19919;-53
2023/11/27 10:02:47;;;;;;;;;;;8.90;62.90;;;2.66;86.71;94629.47;4990065;28;19916;-52
2023/11/27 10:05:24;;;;;;;;;;;8.90;62.60;;;2.74;86.78;94629.09;4992137;28;19917;-53
2023/11/27 10:07:56;;;;;;;;;;;8.90;62.40;;;2.74;84.74;94623.81;4992401;28;19909;-54
2023/11/27 10:10:26;;;;;;;;;;;8.90;62.20;;;2.81;85.22;94613.13;4990591;28;19913;-50
2023/11/27 10:13:12;;;;;;;;;;;8.90;62.10;;;2.77;84.46;94612.81;4991905;28;20012;-52
2023/11/27 10:15:38;;;;;;;;;;;9.00;61.80;;;2.90;84.10;94603.81;4990750;28;19913;-50
2023/11/27 10:18:08;;;;;;;;;;;9.00;61.70;;;3.00;84.58;94610.00;4992203;28;20027;-50
2023/11/27 10:20:35;;;;;;;;;;;9.10;61.80;;;3.09;83.52;94588.56;4989163;28;20090;-56
2023/11/27 10:23:02;;;;;;;;;;;9.20;61.70;;;3.14;83.01;94578.13;4990168;28;19916;-53
2023/11/27 10:25:29;;;;;;;;;;;9.30;61.50;;;3.14;82.95;94576.28;4991987;28;19928;-55
2023/11/27 10:28:03;;;;;;;;;;;9.40;61.30;;;3.21;83.26;94576.09;4990575;28;19909;-54
2023/11/27 10:30:32;;;;;;;;;;;9.50;61.20;;;3.32;81.96;94561.25;4992143;28;20392;-51
2023/11/27 10:32:59;;;;;;;;;;;9.60;61.10;;;3.36;81.84;94559.72;4991232;28;19970;-53
2023/11/27 10:35:25;;;;;;;;;;;9.70;60.70;;;3.40;82.00;94548.44;4985686;28;20261;-55
2023/11/27 10:37:56;;;;;;;;;;;9.80;60.50;;;3.55;80.86;94542.59;4989476;28;19913;-53
2023/11/27 10:40:26;;;;;;;;;;;9.90;60.40;;;3.70;80.17;94540.13;4984833;28;19910;-51
2023/11/27 10:43:00;;;;;;;;;;;10.10;60.40;;;3.62;77.69;94522.13;4989075;28;19917;-52
2023/11/27 10:45:30;;;;;;;;;;;10.30;60.00;;;3.76;77.88;94522.53;4990319;28;19956;-51
2023/11/27 10:47:56;;;;;;;;;;;10.40;59.70;;;3.92;77.92;94518.22;5005981;28;19909;-53
2023/11/27 10:50:25;;;;;;;;;;;10.60;60.20;;;3.98;75.48;94506.69;4992647;28;19967;-53
2023/11/27 10:52:52;;;;;;;;;;;10.80;59.50;;;4.10;76.47;94503.88;4988569;28;19986;-52
2023/11/27 10:55:19;;;;;;;;;;;10.90;59.20;;;4.28;76.85;94498.25;4986679;28;19924;-58
2023/11/27 10:57:49;;;;;;;;;;;11.00;59.10;;;4.40;76.24;94483.06;4988159;28;19915;-53
2023/11/27 11:00:29;;;;;;;;;;;11.10;58.90;;;4.50;75.42;94492.09;4987828;28;20302;-50
2023/11/27 11:03:06;;;;;;;;;;;11.30;58.80;;;4.52;74.38;94467.06;4986211;28;20471;-53
2023/11/27 11:05:51;;;;;;;;;;;11.40;58.40;;;4.58;72.60;94449.44;4987022;28;20004;-55
2023/11/27 11:08:26;;;;;;;;;;;11.50;58.20;;;4.71;72.20;94451.63;4989284;28;19913;-56
2023/11/27 11:10:58;;;;;;;;;;;11.50;58.10;;;4.69;71.98;94448.44;4987967;28;19972;-55
2023/11/27 11:13:27;;;;;;;;;;;11.60;57.60;;;4.79;72.11;94450.34;4987633;28;19920;-53
2023/11/27 11:16:39;;;;;;;;;;;11.70;57.10;;;4.80;70.90;94444.81;4986563;28;19913;-56
2023/11/27 11:19:39;;;;;;;;;;;11.90;56.90;;;4.77;70.06;94440.06;4988879;28;20265;-56
2023/11/27 11:22:58;;;;;;;;;;;11.90;55.80;;;4.78;68.96;94435.56;4988251;28;19909;-57